Albuquerque, NM

9:43 AM MDT on October 02, 2014 (GMT -0600)
Vista Casitas | Change Station
CLOSE
Current Station
Personal Weather Station
Location: Albuquerque, NM
Elevation: 5466 ft
Nearby Weather Stations
Active Advisory: Special Statement

Elev 5466 ft 35.19 °N, 106.74 °W | Updated 3 minutes ago

Clear
Clear
53.3 °F
Feels Like 53.3 °F
N
5.0
Wind Variable Wind from WNW
Gusts 5.0 mph

Today
High -- | Low -- °F
--% Chance of Precip.
Yesterday
High -- | Low -- °F
Precip. -- in
7:02 AM 6:49 PM
First Quarter, 60% visible
Pressure 30.06 in
Visibility 10.0 miles
Clouds Clear
Dew Point 30 °F
Humidity 40%
Rainfall 0.00 in
Snow Depth 1 in , 1 in , 0 in
UV 2 out of 12
Pollen 6.00 out of 12
Air Quality Not available.
Flu Activity Not available.
METAR KABQ 021452Z 34011KT 10SM CLR 11/M04 A3022 RMK AO2 SLP178 T01111039 51027

More Conditions Fewer Conditions

Pressure 30.06 in
Visibility 10.0 miles
Clouds Clear
Dew Point 30 °F
Humidity 40%
Rainfall 0.00 in
Snow Depth 1 in , 1 in , 0 in
UV 2 out of 12
Pollen 6.00 out of 12
Air Quality Not available.
Flu Activity Not available.
METAR KABQ 021452Z 34011KT 10SM CLR 11/M04 A3022 RMK AO2 SLP178 T01111039 51027

More Conditions Fewer Conditions

10-Day Weather Forecast

Almanac

Astronomy

Oct. 02, 2014 Rise Set
Actual Time 7:02 AM MDT 6:49 PM MDT
Civil Twilight 6:37 AM MDT 7:14 PM MDT
Nautical Twilight 6:08 AM MDT 7:44 PM MDT
Astronomical Twilight 5:38 AM MDT 8:13 PM MDT
Moon 2:46 PM MDT 12:35 AM MDT
Length of Visible Light 12h 37m
Length of Day
11h 46m
Tomorrow will be 2m 11s shorter.
First Quarter, 60% of the Moon is Illuminated
Today
First Quarter
Oct 8
Full
Oct 15
Last Quarter
Oct 23
New
Oct 30
First Quarter

Today's Extremes

State Highs State Lows

Community

WunderPhotos

Upload Photos

1,758,276 photos uploaded!

WunderBlogs® & News

Nearby

Snow Depth

Station Depth Elevation
Red River Pass #2 1 in 9850 ft
Chamita 1 in 8400 ft
Rice Park 0 in 8460 ft
McKnight Cabin 0 in 9240 ft
Tolby 1 in 10180 ft

Earthquake Activity

City Distance Mag. Time & Date
Trinidad, Colorado 168 miles 2.9 3:55 AM MDT
2014-09-30
Minimum magnitude displayed is 2.5.

Coastal Water Temperatures

Place Temperature
No Stations Reporting

Nearby Weather Stations